createdAt,value
2023-03-11T00:00:22.584Z,39.50
2023-03-11T00:01:26.382Z,43.28
2023-03-11T00:02:30.061Z,47.83
2023-03-11T00:03:33.768Z,45.10
2023-03-11T00:04:37.629Z,37.10
2023-03-11T00:05:42.658Z,45.63
2023-03-11T00:06:46.283Z,46.10
2023-03-11T00:07:49.942Z,44.80
2023-03-11T00:08:53.625Z,42.63
2023-03-11T00:09:57.242Z,43.03
2023-03-11T00:11:01.346Z,43.67
2023-03-11T00:12:07.621Z,43.55
2023-03-11T00:13:13.706Z,40.85
2023-03-11T00:14:17.362Z,44.40
2023-03-11T00:15:21.201Z,42.08
2023-03-11T00:16:24.848Z,52.60
2023-03-11T00:17:28.753Z,44.83
2023-03-11T00:18:32.448Z,37.53
2023-03-11T00:19:36.116Z,40.73
2023-03-11T00:20:41.681Z,45.58
2023-03-11T00:21:45.444Z,45.83
2023-03-11T00:22:49.165Z,42.28
2023-03-11T00:23:52.828Z,42.15
2023-03-11T00:24:56.542Z,43.77
2023-03-11T00:26:00.286Z,43.05
2023-03-11T00:27:05.757Z,40.65
2023-03-11T00:28:09.583Z,44.35
2023-03-11T00:29:13.166Z,40.90
2023-03-11T00:30:18.694Z,42.00
2023-03-11T00:31:22.406Z,45.45
2023-03-11T00:32:26.098Z,40.47
2023-03-11T00:33:29.776Z,35.88
2023-03-11T00:34:33.455Z,42.33
2023-03-11T00:35:37.371Z,43.87
2023-03-11T00:36:41.073Z,42.47
2023-03-11T00:37:46.295Z,46.03
2023-03-11T00:38:50.030Z,45.05
2023-03-11T00:39:53.745Z,42.35
2023-03-11T00:40:57.347Z,37.57
2023-03-11T00:42:00.931Z,40.05
2023-03-11T00:43:06.250Z,40.72
2023-03-11T00:44:09.879Z,39.88
2023-03-11T00:45:15.024Z,39.58
2023-03-11T00:46:18.780Z,40.37
2023-03-11T00:47:22.459Z,43.28
2023-03-11T00:48:26.399Z,44.75
2023-03-11T00:49:29.999Z,44.85
2023-03-11T00:50:35.100Z,40.33
2023-03-11T00:51:38.756Z,39.70
2023-03-11T00:52:42.387Z,43.97
2023-03-11T00:53:46.488Z,45.10
2023-03-11T00:54:50.142Z,39.17
2023-03-11T00:55:53.783Z,44.60
2023-03-11T00:56:57.462Z,37.97
2023-03-11T00:58:02.255Z,41.30
2023-03-11T00:59:07.526Z,40.22
2023-03-11T01:00:15.266Z,40.58
2023-03-11T01:01:21.105Z,42.42
2023-03-11T01:02:24.801Z,37.30
2023-03-11T01:03:28.592Z,44.15
2023-03-11T01:04:32.269Z,38.58
2023-03-11T01:05:36.346Z,39.30
2023-03-11T01:06:45.527Z,42.88
2023-03-11T01:07:49.751Z,40.13
2023-03-11T01:08:53.439Z,43.45
2023-03-11T01:09:57.027Z,42.58
2023-03-11T01:11:01.445Z,43.60
2023-03-11T01:12:05.346Z,40.92
2023-03-11T01:13:09.049Z,40.60
2023-03-11T01:14:14.482Z,39.13
2023-03-11T01:15:22.065Z,41.50
2023-03-11T01:16:25.754Z,39.53
2023-03-11T01:17:29.470Z,42.95
2023-03-11T01:18:33.082Z,41.27
2023-03-11T01:19:36.807Z,35.63
2023-03-11T01:20:40.873Z,46.85
2023-03-11T01:21:44.491Z,43.85
2023-03-11T01:22:48.145Z,44.72
2023-03-11T01:23:51.785Z,42.07
2023-03-11T01:24:55.434Z,44.58
2023-03-11T01:25:59.366Z,45.97
2023-03-11T01:27:03.005Z,45.25
2023-03-11T01:28:07.415Z,46.25
2023-03-11T01:29:11.066Z,41.57
2023-03-11T01:30:18.677Z,39.38
2023-03-11T01:31:22.381Z,40.08
2023-03-11T01:32:26.114Z,46.25
2023-03-11T01:33:29.751Z,46.10
2023-03-11T01:34:33.337Z,42.53
2023-03-11T01:35:37.031Z,45.92
2023-03-11T01:36:40.748Z,45.15
2023-03-11T01:37:44.664Z,39.78
2023-03-11T01:38:48.379Z,43.30
2023-03-11T01:39:52.023Z,41.43
2023-03-11T01:40:55.626Z,44.22
2023-03-11T01:41:59.315Z,45.22
2023-03-11T01:43:05.216Z,42.78
2023-03-11T01:44:11.752Z,48.53
2023-03-11T01:45:42.833Z,43.43
2023-03-11T01:47:22.999Z,41.28
2023-03-11T01:48:26.580Z,46.15
2023-03-11T01:49:30.273Z,44.38
2023-03-11T01:50:37.470Z,43.13
2023-03-11T01:51:43.696Z,45.53
2023-03-11T01:52:48.292Z,49.30
2023-03-11T01:53:53.038Z,43.95
2023-03-11T01:54:56.800Z,47.40
2023-03-11T01:56:02.112Z,43.50
2023-03-11T01:57:08.765Z,40.33
2023-03-11T01:58:16.517Z,45.58
2023-03-11T01:59:24.946Z,50.40
2023-03-11T02:00:28.671Z,44.30
2023-03-11T02:01:35.452Z,41.95
2023-03-11T02:02:45.929Z,47.43
2023-03-11T02:03:49.976Z,45.25
2023-03-11T02:04:55.331Z,42.88
2023-03-11T02:06:01.050Z,45.60
2023-03-11T02:07:08.515Z,48.10
2023-03-11T02:08:12.327Z,42.80
2023-03-11T02:09:23.226Z,46.40
2023-03-11T02:10:27.340Z,42.55
2023-03-11T02:11:34.087Z,45.40
2023-03-11T02:12:38.568Z,42.20
2023-03-11T02:13:44.878Z,39.43
2023-03-11T02:14:51.448Z,38.30
2023-03-11T02:15:55.243Z,44.05
2023-03-11T02:17:01.712Z,39.78
2023-03-11T02:18:07.214Z,38.97
2023-03-11T02:19:24.589Z,43.47
2023-03-11T02:20:43.390Z,43.35
2023-03-11T02:21:47.401Z,48.00
2023-03-11T02:22:51.574Z,43.08
2023-03-11T02:24:03.400Z,44.75
2023-03-11T02:25:15.370Z,45.40
2023-03-11T02:26:27.205Z,49.20
2023-03-11T02:27:36.511Z,44.05
2023-03-11T02:28:41.984Z,45.25
2023-03-11T02:29:46.632Z,44.00
2023-03-11T02:30:51.189Z,44.40
2023-03-11T02:31:56.225Z,37.88
2023-03-11T02:33:00.880Z,44.00
2023-03-11T02:34:06.866Z,44.97
2023-03-11T02:35:10.856Z,43.65
2023-03-11T02:36:34.594Z,43.53
2023-03-11T02:37:38.610Z,42.72
2023-03-11T02:38:42.371Z,47.63
2023-03-11T02:39:48.106Z,48.60
2023-03-11T02:40:57.061Z,45.63
2023-03-11T02:42:05.956Z,45.37
2023-03-11T02:43:16.213Z,42.83
2023-03-11T02:44:20.014Z,44.00
2023-03-11T02:45:26.684Z,49.45
2023-03-11T02:46:33.036Z,45.55
2023-03-11T02:47:38.932Z,44.37
2023-03-11T02:48:45.978Z,43.22
2023-03-11T02:49:49.955Z,43.60
2023-03-11T02:50:54.384Z,42.03
2023-03-11T02:51:58.150Z,44.65
2023-03-11T02:53:01.936Z,47.10
2023-03-11T02:54:07.163Z,49.13
2023-03-11T02:55:11.455Z,46.88
2023-03-11T02:56:15.162Z,42.65
2023-03-11T02:57:20.497Z,45.20
2023-03-11T02:58:26.000Z,47.93
2023-03-11T02:59:29.711Z,44.85
2023-03-11T03:00:33.666Z,42.60
2023-03-11T03:01:43.210Z,49.60
2023-03-11T03:02:47.576Z,43.42
2023-03-11T03:03:51.625Z,47.83
2023-03-11T03:04:55.366Z,44.15
2023-03-11T03:05:59.099Z,46.10
2023-03-11T03:07:02.852Z,43.28
2023-03-11T03:08:08.912Z,46.10
2023-03-11T03:09:12.800Z,43.73
2023-03-11T03:10:17.931Z,40.75
2023-03-11T03:11:21.720Z,46.42
2023-03-11T03:12:25.513Z,48.45
2023-03-11T03:13:30.952Z,44.17
2023-03-11T03:14:37.013Z,46.70
2023-03-11T03:15:40.755Z,49.45
2023-03-11T03:16:44.660Z,45.70
2023-03-11T03:17:51.404Z,50.17
2023-03-11T03:18:55.123Z,43.95
2023-03-11T03:19:58.914Z,44.30
2023-03-11T03:21:02.584Z,43.70
2023-03-11T03:22:06.556Z,45.65
2023-03-11T03:23:11.975Z,43.13
2023-03-11T03:24:21.196Z,45.63
2023-03-11T03:25:27.595Z,44.10
2023-03-11T03:26:31.217Z,41.00
2023-03-11T03:27:35.608Z,43.88
2023-03-11T03:28:43.167Z,45.65
2023-03-11T03:29:49.807Z,51.40
2023-03-11T03:30:53.591Z,48.53
2023-03-11T03:31:59.933Z,55.50
2023-03-11T03:33:03.650Z,45.40
2023-03-11T03:34:09.275Z,52.45
2023-03-11T03:35:17.127Z,54.92
2023-03-11T03:36:20.920Z,47.63
2023-03-11T03:37:27.238Z,48.38
2023-03-11T03:38:30.911Z,51.78
2023-03-11T03:39:34.606Z,46.08
2023-03-11T03:40:38.410Z,47.95
2023-03-11T03:41:46.574Z,52.57
2023-03-11T03:42:50.356Z,47.33
2023-03-11T03:43:58.503Z,50.75
2023-03-11T03:45:02.285Z,49.45
2023-03-11T03:46:07.088Z,49.53
2023-03-11T03:47:13.234Z,48.33
2023-03-11T03:48:17.266Z,49.03
2023-03-11T03:49:20.998Z,48.00
2023-03-11T03:50:25.122Z,50.25
2023-03-11T03:51:31.670Z,48.38
2023-03-11T03:52:36.529Z,46.73
2023-03-11T03:53:40.328Z,48.53
2023-03-11T03:54:46.872Z,53.70
2023-03-11T03:55:50.582Z,48.25
2023-03-11T03:56:54.454Z,45.25
2023-03-11T03:57:58.456Z,50.03
2023-03-11T04:00:21.398Z,49.85
2023-03-11T04:01:25.157Z,48.15
2023-03-11T04:02:29.284Z,50.28
2023-03-11T04:04:52.956Z,51.67
2023-03-11T04:06:05.891Z,46.38
2023-03-11T04:07:11.870Z,54.70
2023-03-11T04:09:32.904Z,49.80
2023-03-11T04:10:36.731Z,47.90
2023-03-11T04:11:56.288Z,42.78
2023-03-11T04:13:00.066Z,45.90
2023-03-11T04:14:06.082Z,45.10
2023-03-11T04:15:10.587Z,45.17
2023-03-11T04:16:21.029Z,50.55
2023-03-11T04:17:37.483Z,51.65
2023-03-11T04:18:42.968Z,49.92
2023-03-11T04:19:46.756Z,47.60
2023-03-11T04:20:57.423Z,49.93
2023-03-11T04:22:01.211Z,46.10
2023-03-11T04:23:04.975Z,46.10
2023-03-11T04:25:28.439Z,46.25
2023-03-11T04:26:32.217Z,45.87
2023-03-11T04:27:41.495Z,48.72
2023-03-11T04:28:45.310Z,50.92
2023-03-11T04:29:50.876Z,46.53
2023-03-11T04:30:54.699Z,45.85
2023-03-11T04:31:58.429Z,44.00
2023-03-11T04:33:02.173Z,49.45
2023-03-11T04:34:05.905Z,55.38
2023-03-11T04:35:10.090Z,50.45
2023-03-11T04:36:14.058Z,50.92
2023-03-11T04:37:17.833Z,50.47
2023-03-11T04:38:21.663Z,50.92
2023-03-11T04:39:27.159Z,52.28
2023-03-11T04:40:30.848Z,47.42
2023-03-11T04:41:34.624Z,49.90
2023-03-11T04:42:38.466Z,45.73
2023-03-11T04:43:45.257Z,48.22
2023-03-11T04:44:50.665Z,45.05
2023-03-11T04:45:57.261Z,46.72
2023-03-11T04:47:03.865Z,47.70
2023-03-11T04:48:10.677Z,47.03
2023-03-11T04:49:14.476Z,50.95
2023-03-11T04:50:19.071Z,45.90
2023-03-11T04:51:22.839Z,49.92
2023-03-11T04:52:29.684Z,48.45
2023-03-11T04:53:35.527Z,46.40
2023-03-11T04:54:39.392Z,43.90
2023-03-11T04:55:43.210Z,46.88
2023-03-11T04:57:02.829Z,48.78
2023-03-11T04:58:06.674Z,44.53
2023-03-11T04:59:12.519Z,46.10
2023-03-11T05:00:19.598Z,45.35
2023-03-11T05:01:23.389Z,47.67
2023-03-11T05:02:37.698Z,41.25
2023-03-11T05:03:41.492Z,42.90
2023-03-11T05:04:45.410Z,43.43
2023-03-11T05:05:51.290Z,42.63
2023-03-11T05:06:55.014Z,43.45
2023-03-11T05:08:01.394Z,41.08
2023-03-11T05:09:10.389Z,45.67
2023-03-11T05:10:14.550Z,41.90
2023-03-11T05:11:21.419Z,43.85
2023-03-11T05:12:36.457Z,47.58
2023-03-11T05:13:40.253Z,42.33
2023-03-11T05:14:46.195Z,44.03
2023-03-11T05:15:56.763Z,40.83
2023-03-11T05:17:00.482Z,47.70
2023-03-11T05:18:04.409Z,47.22
2023-03-11T05:19:08.358Z,44.78
2023-03-11T05:20:15.105Z,46.88
2023-03-11T05:21:19.417Z,47.07
2023-03-11T05:22:23.536Z,45.90
2023-03-11T05:23:27.282Z,43.05
2023-03-11T05:24:31.202Z,46.80
2023-03-11T05:25:34.909Z,46.95
2023-03-11T05:26:38.590Z,41.40
2023-03-11T05:27:42.393Z,47.42
2023-03-11T05:28:46.192Z,43.60
2023-03-11T05:29:49.943Z,44.25
2023-03-11T05:30:55.293Z,49.33
2023-03-11T05:32:01.249Z,46.33
2023-03-11T05:33:05.096Z,47.30
2023-03-11T05:34:11.607Z,46.35
2023-03-11T05:35:19.850Z,46.92
2023-03-11T05:36:23.529Z,42.10
2023-03-11T05:37:27.377Z,43.73
2023-03-11T05:38:33.287Z,45.15
2023-03-11T05:39:37.050Z,41.92
2023-03-11T05:40:40.915Z,41.65
2023-03-11T05:41:48.663Z,44.33
2023-03-11T05:42:52.475Z,44.50
2023-03-11T05:43:56.192Z,46.05
2023-03-11T05:45:02.679Z,40.58
2023-03-11T05:46:11.466Z,44.58
2023-03-11T05:47:18.112Z,47.05
2023-03-11T05:48:24.749Z,47.53
2023-03-11T05:49:29.107Z,43.55
2023-03-11T05:50:32.927Z,44.63
2023-03-11T05:51:36.728Z,46.25
2023-03-11T05:52:40.388Z,49.75
2023-03-11T05:53:44.339Z,50.40
2023-03-11T05:54:51.564Z,47.63
2023-03-11T05:55:59.220Z,44.63
2023-03-11T05:57:05.971Z,46.90
2023-03-11T05:58:11.466Z,49.63
2023-03-11T05:59:21.248Z,45.63
2023-03-11T06:00:24.976Z,42.60
2023-03-11T06:01:30.474Z,40.97
2023-03-11T06:02:34.221Z,44.78
2023-03-11T06:03:40.391Z,42.47
2023-03-11T06:04:47.134Z,47.43
2023-03-11T06:05:51.454Z,42.63
2023-03-11T06:06:55.256Z,47.67
2023-03-11T06:07:58.997Z,44.53
2023-03-11T06:09:04.931Z,48.08
2023-03-11T06:10:14.890Z,44.70
2023-03-11T06:11:19.024Z,46.92
2023-03-11T06:12:22.843Z,48.88
2023-03-11T06:13:29.437Z,45.78
2023-03-11T06:14:33.180Z,45.95
2023-03-11T06:15:37.692Z,50.70
2023-03-11T06:16:43.364Z,47.50
2023-03-11T06:17:47.138Z,43.45
2023-03-11T06:18:53.785Z,45.53
2023-03-11T06:19:57.563Z,43.97
2023-03-11T06:21:02.486Z,44.10
2023-03-11T06:22:06.318Z,46.20
2023-03-11T06:23:10.449Z,45.05
2023-03-11T06:24:14.338Z,47.85
2023-03-11T06:25:18.347Z,44.78
2023-03-11T06:26:24.244Z,45.23
2023-03-11T06:27:30.728Z,46.58
2023-03-11T06:28:34.672Z,45.67
2023-03-11T06:29:38.504Z,48.92
2023-03-11T06:30:42.470Z,50.22
2023-03-11T06:31:50.777Z,42.87
2023-03-11T06:32:57.409Z,44.90
2023-03-11T06:34:01.216Z,39.92
2023-03-11T06:35:05.521Z,44.03
2023-03-11T06:36:12.857Z,42.90
2023-03-11T06:37:18.773Z,45.20
2023-03-11T06:38:22.533Z,38.75
2023-03-11T06:39:26.259Z,42.75
2023-03-11T06:40:33.013Z,40.50
2023-03-11T06:41:39.811Z,44.42
2023-03-11T06:42:45.959Z,46.77
2023-03-11T06:43:53.707Z,44.05
2023-03-11T06:44:59.782Z,40.97
2023-03-11T06:46:11.374Z,40.90
2023-03-11T06:47:42.462Z,46.85
2023-03-11T06:48:46.846Z,43.27
2023-03-11T06:49:51.661Z,47.65
2023-03-11T06:50:58.222Z,42.38
2023-03-11T06:52:01.953Z,41.67
2023-03-11T06:53:10.149Z,44.83
2023-03-11T06:54:13.896Z,46.97
2023-03-11T06:55:22.390Z,45.60
2023-03-11T06:56:31.523Z,46.25
2023-03-11T06:57:37.904Z,43.42
2023-03-11T06:58:43.299Z,44.08
2023-03-11T06:59:47.107Z,44.50
2023-03-11T07:00:50.832Z,41.13
2023-03-11T07:01:54.652Z,46.78
2023-03-11T07:03:00.035Z,45.65
2023-03-11T07:04:07.055Z,43.47
2023-03-11T07:05:11.427Z,42.47
2023-03-11T07:06:18.933Z,43.13
2023-03-11T07:07:24.634Z,44.53
2023-03-11T07:08:29.416Z,43.55
2023-03-11T07:09:33.164Z,42.13
2023-03-11T07:10:44.501Z,48.03
2023-03-11T07:11:50.605Z,47.17
2023-03-11T07:12:54.421Z,45.65
2023-03-11T07:14:00.675Z,41.75
2023-03-11T07:15:05.422Z,46.30
2023-03-11T07:16:17.045Z,49.57
2023-03-11T07:17:23.526Z,46.10
2023-03-11T07:18:29.031Z,44.50
2023-03-11T07:19:35.615Z,48.15
2023-03-11T07:20:39.375Z,48.35
2023-03-11T07:21:43.313Z,49.60
2023-03-11T07:22:50.526Z,50.72
2023-03-11T07:23:56.012Z,48.42
2023-03-11T07:25:02.978Z,50.45
2023-03-11T07:26:08.995Z,47.78
2023-03-11T07:27:15.559Z,42.40
2023-03-11T07:28:21.736Z,45.90
2023-03-11T07:29:25.476Z,44.13
2023-03-11T07:30:35.043Z,52.03
2023-03-11T07:31:39.041Z,49.25
2023-03-11T07:32:43.567Z,49.77
2023-03-11T07:33:49.090Z,49.97
2023-03-11T07:34:52.882Z,55.60
2023-03-11T07:35:56.683Z,52.15
2023-03-11T07:37:00.750Z,50.72
2023-03-11T07:38:04.658Z,53.37
2023-03-11T07:39:08.842Z,49.08
2023-03-11T07:40:13.550Z,49.50
2023-03-11T07:41:17.393Z,49.70
2023-03-11T07:42:21.914Z,52.80
2023-03-11T07:43:28.646Z,49.20
2023-03-11T07:44:32.411Z,50.35
2023-03-11T07:45:36.299Z,51.17
2023-03-11T07:46:42.524Z,49.50
2023-03-11T07:47:46.261Z,50.75
2023-03-11T07:48:55.088Z,51.10
2023-03-11T07:49:58.841Z,50.80
2023-03-11T07:51:04.347Z,48.63
2023-03-11T07:52:08.443Z,49.50
2023-03-11T07:53:12.188Z,45.78
2023-03-11T07:54:18.076Z,48.40
2023-03-11T07:55:21.868Z,49.97
2023-03-11T07:56:27.270Z,50.65
2023-03-11T07:57:37.912Z,54.55
2023-03-11T07:58:43.573Z,54.25
2023-03-11T07:59:48.997Z,49.10
2023-03-11T08:00:53.223Z,51.45
2023-03-11T08:01:56.962Z,56.08
2023-03-11T08:03:02.170Z,53.50
2023-03-11T08:04:12.924Z,55.85
2023-03-11T08:05:21.012Z,49.78
2023-03-11T08:06:31.609Z,57.57
2023-03-11T08:07:35.753Z,56.80
2023-03-11T08:08:39.584Z,50.53
2023-03-11T08:09:43.414Z,47.13
2023-03-11T08:10:47.179Z,48.60
2023-03-11T08:12:01.370Z,46.97
2023-03-11T08:14:24.285Z,50.13
2023-03-11T08:15:28.265Z,52.50
2023-03-11T08:16:32.106Z,56.55
2023-03-11T08:17:35.829Z,51.47
2023-03-11T08:18:42.743Z,46.85
2023-03-11T08:19:53.469Z,44.20
2023-03-11T08:21:01.420Z,46.50
2023-03-11T08:22:06.209Z,51.30
2023-03-11T08:23:10.231Z,51.30
2023-03-11T08:24:14.986Z,47.28
2023-03-11T08:25:19.034Z,47.55
2023-03-11T08:26:26.059Z,50.33
2023-03-11T08:27:33.007Z,52.65
2023-03-11T08:28:37.815Z,51.07
2023-03-11T08:29:42.068Z,49.92
2023-03-11T08:30:46.214Z,46.90
2023-03-11T08:31:50.005Z,48.70
2023-03-11T08:32:57.067Z,47.75
2023-03-11T08:34:03.151Z,47.50
2023-03-11T08:35:17.717Z,48.63
2023-03-11T08:36:22.000Z,44.75
2023-03-11T08:37:28.037Z,46.75
2023-03-11T08:38:34.158Z,42.17
2023-03-11T08:39:45.482Z,44.60
2023-03-11T08:40:49.322Z,49.75
2023-03-11T08:41:53.702Z,44.55
2023-03-11T08:44:20.054Z,43.28
2023-03-11T08:45:27.010Z,47.30
2023-03-11T08:46:34.630Z,50.55
2023-03-11T08:47:39.259Z,44.70
2023-03-11T08:48:45.598Z,50.88
2023-03-11T08:49:55.090Z,47.90
2023-03-11T08:51:03.368Z,45.43
2023-03-11T08:52:07.733Z,49.65
2023-03-11T08:53:14.620Z,48.65
2023-03-11T08:54:21.193Z,46.17
2023-03-11T08:55:27.422Z,43.67
2023-03-11T08:56:31.529Z,47.77
2023-03-11T08:57:38.262Z,46.60
2023-03-11T08:58:44.888Z,46.92
2023-03-11T08:59:51.599Z,45.03
2023-03-11T09:00:55.902Z,51.13
2023-03-11T09:02:02.647Z,44.67
2023-03-11T09:03:06.739Z,47.78
2023-03-11T09:04:10.737Z,43.10
2023-03-11T09:05:21.972Z,44.22
2023-03-11T09:06:27.413Z,46.08
2023-03-11T09:07:31.291Z,43.83
2023-03-11T09:08:35.753Z,43.70
2023-03-11T09:09:39.710Z,47.45
2023-03-11T09:10:45.468Z,41.85
2023-03-11T09:11:49.515Z,43.30
2023-03-11T09:12:56.054Z,42.87
2023-03-11T09:14:02.992Z,38.70
2023-03-11T09:15:07.598Z,42.60
2023-03-11T09:16:23.547Z,46.42
2023-03-11T09:17:27.342Z,40.58
2023-03-11T09:18:32.473Z,43.03
2023-03-11T09:19:36.332Z,42.38
2023-03-11T09:20:40.419Z,43.90
2023-03-11T09:21:46.032Z,44.95
2023-03-11T09:22:58.825Z,50.50
2023-03-11T09:24:04.938Z,43.67
2023-03-11T09:25:10.817Z,38.78
2023-03-11T09:26:14.962Z,49.00
2023-03-11T09:27:20.891Z,43.63
2023-03-11T09:28:24.839Z,43.17
2023-03-11T09:29:32.308Z,41.30
2023-03-11T09:30:38.999Z,45.17
2023-03-11T09:31:48.232Z,45.40
2023-03-11T09:32:55.966Z,40.53
2023-03-11T09:34:02.651Z,39.60
2023-03-11T09:35:09.267Z,44.83
2023-03-11T09:36:16.803Z,43.17
2023-03-11T09:37:22.307Z,44.85
2023-03-11T09:38:26.469Z,42.13
2023-03-11T09:39:30.507Z,40.15
2023-03-11T09:40:47.926Z,43.67
2023-03-11T09:41:59.222Z,40.95
2023-03-11T09:43:12.628Z,39.50
2023-03-11T09:44:24.340Z,41.33
2023-03-11T09:45:30.917Z,42.92
2023-03-11T09:46:51.944Z,39.43
2023-03-11T09:48:09.625Z,43.65
2023-03-11T09:49:27.805Z,43.97
2023-03-11T09:50:35.868Z,39.47
2023-03-11T09:51:43.914Z,39.10
2023-03-11T09:53:03.210Z,41.63
2023-03-11T09:54:12.654Z,42.53
2023-03-11T09:55:32.622Z,38.83
2023-03-11T09:56:42.866Z,42.58
2023-03-11T09:57:49.032Z,35.25
2023-03-11T09:59:05.807Z,43.10
2023-03-11T10:00:16.320Z,36.03
2023-03-11T10:01:25.417Z,39.42
2023-03-11T10:02:29.584Z,38.38
2023-03-11T10:03:39.790Z,37.95
2023-03-11T10:04:53.874Z,39.87
2023-03-11T10:06:13.154Z,35.88
2023-03-11T10:07:19.982Z,43.83
2023-03-11T10:08:36.564Z,38.33
2023-03-11T10:09:46.566Z,40.00
2023-03-11T10:11:02.472Z,42.90
2023-03-11T10:12:22.594Z,38.05
2023-03-11T10:15:18.974Z,37.60
2023-03-11T10:16:32.252Z,36.75
2023-03-11T10:18:03.771Z,37.93
2023-03-11T10:19:19.813Z,35.70
2023-03-11T10:20:28.515Z,32.72
2023-03-11T10:21:46.604Z,34.90
2023-03-11T10:23:07.534Z,35.83
2023-03-11T10:24:37.577Z,41.13
2023-03-11T10:26:06.565Z,36.92
2023-03-11T10:27:16.305Z,33.80
2023-03-11T10:28:31.932Z,32.35
2023-03-11T10:29:54.347Z,34.70
2023-03-11T10:31:06.796Z,35.27
2023-03-11T10:32:21.617Z,37.63
2023-03-11T10:33:40.006Z,36.05
2023-03-11T10:34:48.626Z,43.00
2023-03-11T10:35:59.829Z,39.17
2023-03-11T10:37:07.951Z,36.87
2023-03-11T10:38:19.178Z,43.20
2023-03-11T10:39:25.379Z,35.72
2023-03-11T10:40:32.906Z,39.60
2023-03-11T10:41:51.489Z,35.78
2023-03-11T20:02:13.355Z,35.88
